This is the latest recevied weather packets stored in our database for station/object K6MLE. If no packets are shown the sender has not sent any weather packets the latest 10 day(s).
| Time | Temp. | Humidity | Pressure | Rain* | Wind** | Luminosity | Snow |
|---|---|---|---|---|---|---|---|
| 1777813216 | 10° C | 94% | 1009 hPa | 0 mm | - | - | - |
| 1777812041 | 10° C | 93% | 1008.9 hPa | 0 mm | - | - | - |
| 1777810216 | 10.56° C | 93% | 1008.7 hPa | 0 mm | - | - | - |
| 1777807856 | 10.56° C | 93% | 1009 hPa | 0 mm | - | - | - |
| 1777805416 | 11.11° C | 92% | 1009 hPa | 0 mm | - | - | - |
| 1777802416 | 12.22° C | 92% | 1009 hPa | 0 mm | - | - | - |
| 1777801216 | 12.22° C | 92% | 1009.1 hPa | 0 mm | - | - | - |
| 1777797616 | 12.22° C | 93% | 1009.9 hPa | 0 mm | - | - | - |
| 1777795216 | 12.22° C | 92% | 1010.5 hPa | 0 mm | - | - | - |
| 1777788616 | 12.78° C | 90% | 1011.1 hPa | 0 mm | - | - | - |
| 1777784436 | 13.89° C | 86% | 1011.2 hPa | 0 mm | - | - | - |
| 1777783215 | 14.44° C | 85% | 1011 hPa | 0 mm | - | - | - |
| 1777782615 | 14.44° C | 84% | 1010.8 hPa | 0 mm | - | - | - |
| 1777781416 | 15° C | 83% | 1010.8 hPa | 0 mm | - | - | - |
| 1777777815 | 16.67° C | 75% | 1010 hPa | 0 mm | - | - | - |
| 1777777219 | 17.22° C | 72% | 1009.8 hPa | 0 mm | - | - | - |
| 1777776042 | 17.78° C | 68% | 1009.7 hPa | 0 mm | - | - | - |
| 1777773618 | 19.44° C | 64% | 1009.8 hPa | 0 mm | - | - | - |
| 1777771819 | 20.56° C | 56% | 1010 hPa | 0 mm | - | - | - |
| 1777764619 | 20.56° C | 60% | 1010.4 hPa | 0 mm | - | - | - |
| 1777755017 | 21.11° C | 63% | 1011.9 hPa | 0 mm | - | - | - |
| 1777752017 | 22.78° C | 58% | 1012.4 hPa | 0 mm | - | - | - |
| 1777747218 | 21.67° C | 57% | 1012.5 hPa | 0 mm | - | - | - |
| 1777745437 | 21.11° C | 60% | 1012.4 hPa | 0 mm | - | - | - |
| 1777744817 | 21.11° C | 56% | 1012.4 hPa | 0 mm | - | - | - |
* Rain latest hour (hover to see other rain measurements)
** Current wind speed in m/s (hover to see current wind gust speed)